Time;durP1;ratioP1;P1;durP2;ratioP2;P2;SDS_P1;SDS_P2;PMS_P1;PMS_P2;Temp;Humidity;BMP_temperature;BMP_pressure;BME280_temperature;BME280_humidity;BME280_pressure;Samples;Min_cycle;Max_cycle;Signal;HPM_P1;HPM_P2
2024/03/28 00:01:11;;;;;;;62.40;37.70;;;;;;;1.89;100.00;100618.39;109397;1249;59911;-58
2024/03/28 00:03:38;;;;;;;86.80;42.80;;;;;;;1.84;100.00;100616.55;109502;1250;75424;-55
2024/03/28 00:06:06;;;;;;;78.70;43.60;;;;;;;1.82;100.00;100611.20;109481;1250;66186;-54
2024/03/28 00:08:33;;;;;;;81.40;41.00;;;;;;;1.82;100.00;100613.63;109437;1253;72385;-54
2024/03/28 00:11:01;;;;;;;92.00;45.80;;;;;;;1.80;100.00;100622.00;109453;1250;60261;-58
2024/03/28 00:13:28;;;;;;;80.90;38.70;;;;;;;1.78;100.00;100624.02;109490;1250;59671;-54
2024/03/28 00:15:59;;;;;;;68.00;35.90;;;;;;;1.78;100.00;100630.36;109520;1249;74492;-54
2024/03/28 00:18:27;;;;;;;68.90;37.10;;;;;;;1.79;100.00;100628.08;109507;1250;67090;-55
2024/03/28 00:20:58;;;;;;;150.10;62.50;;;;;;;1.82;100.00;100633.31;109539;1250;72636;-54
2024/03/28 00:23:26;;;;;;;80.70;42.20;;;;;;;1.82;100.00;100632.64;109370;1250;59795;-54
2024/03/28 00:25:57;;;;;;;67.00;36.70;;;;;;;1.81;100.00;100628.91;109471;1250;60193;-54
2024/03/28 00:28:25;;;;;;;65.20;35.40;;;;;;;1.81;100.00;100629.94;109454;1250;75715;-54
2024/03/28 00:30:52;;;;;;;67.20;35.70;;;;;;;1.82;100.00;100629.89;109475;1249;66963;-54
2024/03/28 00:33:20;;;;;;;199.70;75.20;;;;;;;1.81;100.00;100625.48;109416;1250;73589;-58
2024/03/28 00:35:48;;;;;;;77.20;38.40;;;;;;;1.82;100.00;100626.95;109471;1252;59858;-55
2024/03/28 00:38:16;;;;;;;95.20;56.60;;;;;;;1.85;100.00;100622.42;109502;1249;60011;-54
2024/03/28 00:40:47;;;;;;;95.50;57.10;;;;;;;1.90;100.00;100617.27;109460;1250;75498;-55
2024/03/28 00:43:15;;;;;;;110.20;60.40;;;;;;;1.95;100.00;100616.17;109439;1250;67210;-55
2024/03/28 00:45:43;;;;;;;91.50;52.20;;;;;;;1.99;100.00;100617.96;109514;1250;71836;-54
2024/03/28 00:48:10;;;;;;;93.30;55.50;;;;;;;2.01;100.00;100619.84;109486;1251;60958;-55
2024/03/28 00:50:38;;;;;;;92.10;54.30;;;;;;;2.05;100.00;100624.70;109447;1250;60162;-55
2024/03/28 00:53:05;;;;;;;205.70;113.10;;;;;;;2.06;100.00;100621.70;109436;1253;74456;-58
2024/03/28 00:55:33;;;;;;;228.80;118.60;;;;;;;2.09;100.00;100615.83;109511;1249;66885;-54
2024/03/28 00:58:00;;;;;;;93.60;56.30;;;;;;;2.12;100.00;100618.12;109522;1250;71782;-55
2024/03/28 01:00:28;;;;;;;91.20;51.40;;;;;;;2.13;100.00;100616.19;109481;1250;60137;-54
2024/03/28 01:02:55;;;;;;;62.40;37.40;;;;;;;2.13;100.00;100608.77;109464;1251;60208;-54
2024/03/28 01:05:23;;;;;;;65.40;36.10;;;;;;;2.15;100.00;100608.09;109442;1249;75635;-53
2024/03/28 01:07:50;;;;;;;62.50;36.30;;;;;;;2.16;100.00;100607.03;109528;1250;67088;-54
2024/03/28 01:10:18;;;;;;;61.30;36.40;;;;;;;2.14;100.00;100603.27;109474;1250;71784;-54
2024/03/28 01:12:45;;;;;;;68.70;37.20;;;;;;;2.11;100.00;100605.52;109478;1252;59729;-54
2024/03/28 01:15:12;;;;;;;65.60;37.50;;;;;;;2.09;100.00;100604.31;109425;1250;60103;-56
2024/03/28 01:17:40;;;;;;;63.00;35.30;;;;;;;2.10;100.00;100606.84;109478;1250;74494;-54
2024/03/28 01:20:08;;;;;;;70.10;37.30;;;;;;;2.09;100.00;100609.59;109479;1250;65691;-55
2024/03/28 01:22:35;;;;;;;68.20;38.10;;;;;;;2.10;100.00;100610.73;109450;1250;73109;-55
2024/03/28 01:25:03;;;;;;;66.60;37.30;;;;;;;2.10;100.00;100612.30;109466;1253;60194;-55
2024/03/28 01:27:30;;;;;;;67.30;38.40;;;;;;;2.08;100.00;100615.85;109496;1250;60643;-54
2024/03/28 01:29:57;;;;;;;63.20;37.90;;;;;;;2.06;100.00;100614.34;109483;1249;75512;-55
2024/03/28 01:32:25;;;;;;;74.50;41.30;;;;;;;2.03;100.00;100615.20;109518;1250;67203;-54
2024/03/28 01:34:52;;;;;;;72.40;40.90;;;;;;;1.98;100.00;100620.91;109458;1249;71428;-58
2024/03/28 01:37:20;;;;;;;69.20;38.90;;;;;;;1.90;100.00;100616.76;109424;1250;60163;-54
2024/03/28 01:39:48;;;;;;;72.90;38.60;;;;;;;1.82;100.00;100615.69;109446;1250;59845;-55
2024/03/28 01:42:15;;;;;;;78.30;42.20;;;;;;;1.72;100.00;100614.55;109539;1250;74190;-56
2024/03/28 01:44:43;;;;;;;73.50;41.10;;;;;;;1.67;100.00;100612.52;109480;1250;66885;-53
2024/03/28 01:47:10;;;;;;;72.40;41.50;;;;;;;1.66;100.00;100614.95;109458;1252;72722;-55
2024/03/28 01:49:58;;;;;;;82.20;45.90;;;;;;;1.67;100.00;100615.45;109504;1250;60284;-54
2024/03/28 01:52:25;;;;;;;89.30;48.00;;;;;;;1.66;100.00;100613.58;109298;1250;59884;-54
2024/03/28 01:54:53;;;;;;;89.90;49.50;;;;;;;1.66;100.00;100610.70;109467;1249;74230;-55
2024/03/28 01:57:20;;;;;;;78.20;43.50;;;;;;;1.64;100.00;100611.38;109434;1250;65431;-54
2024/03/28 01:59:48;;;;;;;73.00;41.70;;;;;;;1.64;100.00;100611.05;109435;1250;71462;-54
2024/03/28 02:02:15;;;;;;;75.30;41.30;;;;;;;1.62;100.00;100612.69;109442;1253;59756;-54
2024/03/28 02:04:43;;;;;;;65.80;40.30;;;;;;;1.61;100.00;100612.77;109286;1250;59833;-55
2024/03/28 02:07:11;;;;;;;74.10;41.00;;;;;;;1.61;100.00;100611.95;109491;1250;76111;-54
2024/03/28 02:09:38;;;;;;;63.80;39.60;;;;;;;1.61;100.00;100610.58;109471;1250;65324;-55
2024/03/28 02:12:05;;;;;;;65.50;38.20;;;;;;;1.60;100.00;100615.77;109450;1249;72819;-54
2024/03/28 02:14:36;;;;;;;66.00;38.90;;;;;;;1.59;100.00;100614.66;109428;1249;59784;-54
2024/03/28 02:17:05;;;;;;;59.50;35.40;;;;;;;1.57;100.00;100618.13;109198;1250;60047;-54
2024/03/28 02:19:34;;;;;;;60.50;38.20;;;;;;;1.55;100.00;100618.39;109491;1250;74160;-54
2024/03/28 02:22:02;;;;;;;62.20;39.20;;;;;;;1.52;100.00;100618.77;109500;1250;67031;-54
2024/03/28 02:24:29;;;;;;;62.60;37.40;;;;;;;1.50;100.00;100619.69;109487;1250;70762;-54
2024/03/28 02:26:57;;;;;;;63.30;40.70;;;;;;;1.45;100.00;100621.50;109456;1250;59762;-55
2024/03/28 02:29:24;;;;;;;65.80;40.10;;;;;;;1.42;100.00;100625.21;109504;1250;61019;-55
2024/03/28 02:31:51;;;;;;;65.30;39.90;;;;;;;1.39;100.00;100625.58;109481;1250;75404;-54
2024/03/28 02:34:19;;;;;;;66.10;42.40;;;;;;;1.37;100.00;100623.85;109527;1250;67550;-55
2024/03/28 02:36:46;;;;;;;67.70;40.80;;;;;;;1.36;100.00;100621.19;109424;1253;72755;-57
2024/03/28 02:39:14;;;;;;;71.00;41.00;;;;;;;1.35;100.00;100620.94;109427;1250;59703;-54
2024/03/28 02:41:42;;;;;;;64.20;39.10;;;;;;;1.32;100.00;100621.01;109537;1249;60259;-55
2024/03/28 02:44:09;;;;;;;63.00;38.60;;;;;;;1.28;100.00;100625.39;109480;1250;75539;-54
2024/03/28 02:46:37;;;;;;;59.10;36.70;;;;;;;1.24;100.00;100629.63;109528;1250;65690;-55
2024/03/28 02:49:04;;;;;;;62.20;38.30;;;;;;;1.18;100.00;100634.13;109472;1250;72683;-58
2024/03/28 02:51:31;;;;;;;74.10;40.60;;;;;;;1.13;100.00;100636.11;109468;1250;59731;-54
2024/03/28 02:53:59;;;;;;;68.30;38.80;;;;;;;1.07;100.00;100641.52;109495;1250;60309;-54
2024/03/28 02:56:26;;;;;;;63.20;36.80;;;;;;;0.99;100.00;100642.05;109531;1250;75617;-53
2024/03/28 02:58:54;;;;;;;58.80;34.70;;;;;;;0.92;100.00;100645.46;109494;1249;65603;-54
2024/03/28 03:01:21;;;;;;;59.70;33.40;;;;;;;0.86;100.00;100645.94;109400;1250;72732;-55
2024/03/28 03:03:49;;;;;;;57.70;33.30;;;;;;;0.82;100.00;100649.31;109463;1250;60962;-54
2024/03/28 03:06:16;;;;;;;56.50;34.10;;;;;;;0.77;100.00;100650.02;109429;1250;59713;-55
2024/03/28 03:08:43;;;;;;;58.00;34.50;;;;;;;0.72;100.00;100656.67;109475;1250;75519;-54
2024/03/28 03:11:11;;;;;;;60.30;35.40;;;;;;;0.68;100.00;100657.27;109478;1250;67406;-58
2024/03/28 03:13:38;;;;;;;66.20;36.50;;;;;;;0.66;100.00;100656.22;109505;1250;72746;-54
2024/03/28 03:16:06;;;;;;;63.70;36.60;;;;;;;0.66;100.00;100657.27;109455;1250;60081;-54
2024/03/28 03:18:34;;;;;;;62.30;35.00;;;;;;;0.68;100.00;100658.35;109465;1252;59857;-55
2024/03/28 03:21:04;;;;;;;69.80;38.50;;;;;;;0.70;100.00;100659.36;109476;1250;75544;-58
2024/03/28 03:23:35;;;;;;;72.10;35.90;;;;;;;0.74;100.00;100661.51;109518;1249;67043;-54
2024/03/28 03:26:19;;;;;;;83.60;44.00;;;;;;;0.79;100.00;100659.94;109452;1250;71308;-53
2024/03/28 03:34:36;;;;;;;49.70;29.60;;;;;;;1.15;100.00;100664.14;109422;1250;75538;-57
2024/03/28 03:37:08;;;;;;;49.40;29.70;;;;;;;1.40;100.00;100666.14;109492;1250;64622;-54
2024/03/28 03:39:35;;;;;;;47.00;27.70;;;;;;;1.74;100.00;100668.85;109518;1250;71894;-54
2024/03/28 03:42:03;;;;;;;57.70;30.00;;;;;;;2.16;100.00;100668.25;109445;1253;60204;-55
2024/03/28 03:44:30;;;;;;;48.20;30.10;;;;;;;2.63;100.00;100672.80;109462;1256;60003;-54
2024/03/28 03:46:58;;;;;;;52.50;30.50;;;;;;;3.11;100.00;100677.34;109501;1250;75478;-55
2024/03/28 03:49:25;;;;;;;48.40;31.20;;;;;;;3.61;100.00;100682.69;109514;1250;65501;-54
2024/03/28 03:51:53;;;;;;;50.00;29.60;;;;;;;4.11;100.00;100680.52;109468;1250;72839;-54
2024/03/28 03:54:20;;;;;;;49.50;29.20;;;;;;;4.58;100.00;100679.39;109488;1250;59779;-55
2024/03/28 03:56:47;;;;;;;46.30;29.40;;;;;;;5.03;100.00;100682.28;109488;1250;60087;-54
2024/03/28 03:59:15;;;;;;;48.00;30.70;;;;;;;5.43;100.00;100681.10;109546;1250;74705;-55
2024/03/28 04:01:42;;;;;;;45.60;30.40;;;;;;;5.79;100.00;100684.07;109556;1250;65813;-56
2024/03/28 04:04:10;;;;;;;50.40;31.80;;;;;;;6.17;100.00;100684.52;109534;1250;71196;-54
2024/03/28 04:06:37;;;;;;;48.00;31.10;;;;;;;6.45;100.00;100682.75;109463;1250;60958;-55
2024/03/28 04:09:05;;;;;;;47.30;30.40;;;;;;;6.79;100.00;100681.95;109454;1250;59697;-54
2024/03/28 04:11:32;;;;;;;46.40;29.20;;;;;;;7.33;100.00;100683.86;109499;1250;75598;-55
2024/03/28 04:14:00;;;;;;;43.00;29.10;;;;;;;7.99;100.00;100680.92;109522;1250;67040;-55
2024/03/28 04:16:27;;;;;;;39.70;26.10;;;;;;;8.78;100.00;100678.20;109505;1250;71364;-56
2024/03/28 04:18:55;;;;;;;39.60;26.50;;;;;;;9.55;100.00;100676.70;109474;1250;60771;-55
2024/03/28 04:21:23;;;;;;;41.20;26.30;;;;;;;10.36;100.00;100670.06;109461;1250;59792;-55
2024/03/28 04:23:50;;;;;;;50.70;35.00;;;;;;;11.09;100.00;100660.13;109549;1250;74667;-55
2024/03/28 04:26:18;;;;;;;58.30;40.30;;;;;;;11.70;100.00;100646.42;109532;1250;66948;-55
2024/03/28 04:28:45;;;;;;;39.70;29.90;;;;;;;12.24;100.00;100627.56;109479;1250;72509;-59
2024/03/28 04:31:12;;;;;;;36.60;26.90;;;;;;;12.75;100.00;100607.27;109462;1250;60049;-55
2024/03/28 04:33:40;;;;;;;35.20;24.70;;;;;;;13.20;100.00;100592.95;109473;1250;60266;-55
2024/03/28 04:36:07;;;;;;;34.20;25.00;;;;;;;13.67;100.00;100584.35;109496;1249;75516;-55
2024/03/28 04:38:35;;;;;;;31.50;22.80;;;;;;;14.13;100.00;100575.77;109522;1250;65707;-55
2024/03/28 04:41:03;;;;;;;33.50;24.60;;;;;;;14.59;100.00;100567.73;109439;1253;71685;-55
2024/03/28 04:43:30;;;;;;;40.40;30.00;;;;;;;15.08;100.00;100567.83;109499;1253;60615;-56
2024/03/28 04:45:58;;;;;;;58.90;37.80;;;;;;;15.64;100.00;100567.71;109508;1250;60209;-55
2024/03/28 04:48:25;;;;;;;45.30;30.20;;;;;;;16.18;100.00;100568.60;109482;1250;74236;-54
2024/03/28 04:50:53;;;;;;;31.70;25.00;;;;;;;16.65;100.00;100565.55;109395;1250;66303;-56
2024/03/28 04:53:21;;;;;;;29.40;23.20;;;;;;;16.97;99.03;100567.36;109437;1252;73151;-55
2024/03/28 04:55:48;;;;;;;39.60;27.50;;;;;;;17.18;89.56;100562.57;109485;1250;59825;-55
2024/03/28 04:58:15;;;;;;;102.80;67.30;;;;;;;17.49;82.36;100564.13;109430;1250;59789;-55
2024/03/28 05:00:43;;;;;;;49.20;34.00;;;;;;;17.81;74.93;100559.39;109500;1250;75513;-55
2024/03/28 05:03:10;;;;;;;46.70;36.20;;;;;;;18.10;68.08;100553.95;109464;1250;66861;-56
2024/03/28 05:05:38;;;;;;;32.90;28.70;;;;;;;18.40;62.08;100547.21;109463;1250;73306;-55
2024/03/28 05:08:06;;;;;;;32.30;24.70;;;;;;;18.63;58.44;100545.83;109445;1250;59759;-55
2024/03/28 05:10:37;;;;;;;34.90;28.10;;;;;;;18.82;54.84;100548.34;109544;1250;60169;-57
2024/03/28 05:13:04;;;;;;;;;;;;;;;18.74;51.81;100546.98;109446;1249;74235;-55
2024/03/28 05:15:32;;;;;;;35.80;25.40;;;;;;;18.56;51.37;100548.25;109492;1256;67163;-54
2024/03/28 05:17:59;;;;;;;32.90;25.70;;;;;;;18.55;51.96;100547.86;109482;1250;71385;-55
2024/03/28 05:20:26;;;;;;;33.40;26.10;;;;;;;18.52;50.24;100549.41;109443;1250;59760;-55
2024/03/28 05:22:54;;;;;;;33.80;25.90;;;;;;;18.22;49.02;100553.89;109502;1250;60016;-55
2024/03/28 05:25:21;;;;;;;34.00;26.90;;;;;;;17.66;48.92;100555.16;109383;1250;75533;-56
2024/03/28 05:27:49;;;;;;;35.10;27.40;;;;;;;17.01;51.03;100558.32;109542;1250;66859;-55
2024/03/28 05:30:17;;;;;;;28.70;24.00;;;;;;;16.52;53.71;100562.46;109522;1250;72749;-56
2024/03/28 05:32:44;;;;;;;28.70;23.30;;;;;;;15.96;57.77;100564.91;109405;1250;60240;-55
2024/03/28 05:35:12;;;;;;;28.10;22.90;;;;;;;15.47;61.93;100566.07;109401;1250;59881;-58
2024/03/28 05:37:39;;;;;;;31.00;23.40;;;;;;;15.10;70.74;100569.52;109454;1250;75494;-55
2024/03/28 05:40:07;;;;;;;33.00;24.50;;;;;;;15.00;76.09;100569.86;109506;1255;66107;-55
2024/03/28 05:42:34;;;;;;;32.30;24.00;;;;;;;14.94;76.98;100565.23;109489;1250;72723;-55
2024/03/28 05:45:02;;;;;;;27.20;22.30;;;;;;;14.77;78.40;100560.48;109491;1250;59728;-55
2024/03/28 05:47:29;;;;;;;31.30;21.80;;;;;;;14.49;85.63;100557.80;109452;1250;60112;-58
2024/03/28 05:49:57;;;;;;;29.30;21.50;;;;;;;14.34;93.87;100560.64;109516;1250;75644;-55
2024/03/28 05:52:24;;;;;;;26.30;21.00;;;;;;;14.30;97.01;100557.28;109501;1250;66918;-55
2024/03/28 05:54:52;;;;;;;24.80;21.10;;;;;;;14.29;97.46;100558.68;109502;1250;71507;-56
2024/03/28 05:57:19;;;;;;;31.40;22.30;;;;;;;14.14;98.19;100564.19;109510;1250;59732;-55
2024/03/28 05:59:47;;;;;;;32.70;22.60;;;;;;;13.97;99.86;100562.17;109477;1250;60148;-56
2024/03/28 06:02:14;;;;;;;23.60;18.30;;;;;;;13.95;100.00;100561.65;109504;1250;75527;-56
2024/03/28 06:04:42;;;;;;;26.30;19.50;;;;;;;13.98;100.00;100561.86;109540;1250;66987;-56
2024/03/28 06:07:09;;;;;;;25.60;18.40;;;;;;;13.79;100.00;100556.60;109496;1250;71329;-54
2024/03/28 06:09:37;;;;;;;24.20;18.20;;;;;;;13.71;100.00;100560.36;109496;1250;60271;-56
2024/03/28 06:12:04;;;;;;;26.40;17.90;;;;;;;13.70;100.00;100564.88;109449;1250;60577;-56
2024/03/28 06:14:32;;;;;;;22.10;17.50;;;;;;;13.63;100.00;100563.63;109495;1250;75541;-56
2024/03/28 06:16:59;;;;;;;24.30;18.00;;;;;;;13.61;100.00;100565.52;109523;1250;66374;-56
2024/03/28 06:19:27;;;;;;;22.70;17.60;;;;;;;13.56;100.00;100560.22;109498;1254;72889;-55
2024/03/28 06:21:54;;;;;;;19.40;16.10;;;;;;;13.63;100.00;100562.34;109472;1250;62102;-60
2024/03/28 06:24:22;;;;;;;21.30;15.80;;;;;;;14.03;100.00;100553.95;109484;1250;60600;-56
2024/03/28 06:26:49;;;;;;;24.80;17.70;;;;;;;14.50;100.00;100554.17;109524;1249;75500;-57
2024/03/28 06:29:16;;;;;;;24.30;15.40;;;;;;;15.01;100.00;100555.68;109525;1251;65774;-56
2024/03/28 06:31:44;;;;;;;19.70;14.40;;;;;;;15.53;100.00;100551.66;109560;1250;71487;-54
2024/03/28 06:34:12;;;;;;;24.80;12.30;;;;;;;16.06;100.00;100545.32;109452;1253;60133;-59
2024/03/28 06:36:39;;;;;;;14.60;11.30;;;;;;;16.79;99.16;100537.05;109507;1250;62513;-54
2024/03/28 06:39:08;;;;;;;15.80;11.50;;;;;;;17.57;90.96;100537.10;109498;1250;76478;-54
2024/03/28 06:41:36;;;;;;;17.50;11.40;;;;;;;18.40;79.59;100529.90;109533;1250;68371;-54
2024/03/28 06:44:04;;;;;;;13.30;10.30;;;;;;;19.06;67.95;100530.63;109444;1250;74888;-56
2024/03/28 06:46:31;;;;;;;14.60;11.40;;;;;;;19.54;62.89;100529.60;109476;1250;60213;-55
2024/03/28 06:48:59;;;;;;;12.60;11.00;;;;;;;20.07;57.60;100527.81;109531;1250;60205;-55
2024/03/28 06:51:26;;;;;;;15.70;10.70;;;;;;;20.59;53.54;100524.30;109486;1256;78081;-55
2024/03/28 06:53:54;;;;;;;12.60;10.00;;;;;;;21.08;50.33;100515.67;109514;1250;65697;-55
2024/03/28 06:56:21;;;;;;;13.90;9.60;;;;;;;21.47;48.09;100517.70;109463;1253;71113;-56
2024/03/28 06:58:50;;;;;;;13.20;10.00;;;;;;;21.90;46.70;100512.55;109454;1253;62667;-55
2024/03/28 07:01:18;;;;;;;16.70;8.10;;;;;;;22.41;44.20;100509.42;109514;1250;62084;-55
2024/03/28 07:03:46;;;;;;;8.60;7.00;;;;;;;22.66;41.80;100515.01;109487;1250;77599;-55
2024/03/28 07:06:13;;;;;;;10.50;7.50;;;;;;;22.72;40.43;100516.52;109467;1250;66913;-55
2024/03/28 07:08:46;;;;;;;10.10;9.00;;;;;;;22.70;40.04;100516.27;109456;1249;75306;-55
2024/03/28 07:11:14;;;;;;;13.10;9.10;;;;;;;22.80;40.59;100517.91;109505;1250;61547;-55
2024/03/28 07:13:42;;;;;;;11.70;8.30;;;;;;;23.26;39.90;100519.25;109491;1251;61979;-56
2024/03/28 07:16:09;;;;;;;14.20;8.60;;;;;;;23.62;37.80;100521.02;109517;1251;77610;-55
2024/03/28 07:18:37;;;;;;;9.70;8.10;;;;;;;23.33;37.35;100521.52;109407;1253;65647;-56
2024/03/28 07:21:04;;;;;;;12.10;7.50;;;;;;;23.09;37.93;100523.66;109529;1251;74622;-55
2024/03/28 07:23:32;;;;;;;10.90;6.90;;;;;;;23.34;37.29;100523.91;109507;1251;60194;-57
2024/03/28 07:26:00;;;;;;;8.80;4.90;;;;;;;23.63;36.22;100520.39;109477;1249;59691;-57
2024/03/28 07:28:27;;;;;;;7.00;4.70;;;;;;;23.92;34.74;100517.66;109459;1250;76702;-59
2024/03/28 07:30:55;;;;;;;8.00;5.10;;;;;;;24.02;33.56;100513.59;109431;1250;68626;-58
2024/03/28 07:33:23;;;;;;;6.40;4.10;;;;;;;24.03;33.41;100506.61;109413;1250;73813;-58
2024/03/28 07:35:50;;;;;;;8.30;4.20;;;;;;;24.11;33.18;100506.87;109427;1251;60094;-57
2024/03/28 07:38:18;;;;;;;6.00;3.50;;;;;;;24.33;32.97;100504.73;109515;1256;62616;-57
2024/03/28 07:40:52;;;;;;;6.50;3.70;;;;;;;24.54;32.14;100503.98;109465;1251;76401;-58
2024/03/28 07:43:19;;;;;;;5.20;3.80;;;;;;;24.41;31.64;100499.67;109489;1250;66938;-57
2024/03/28 07:45:47;;;;;;;4.90;3.70;;;;;;;23.98;32.07;100502.14;109434;1251;73488;-57
2024/03/28 07:48:15;;;;;;;4.90;4.00;;;;;;;23.73;32.42;100501.95;109501;1256;62510;-58
2024/03/28 07:50:43;;;;;;;8.20;4.20;;;;;;;23.63;32.39;100496.48;109398;1250;61906;-58
2024/03/28 07:53:10;;;;;;;8.10;5.20;;;;;;;23.54;32.50;100502.53;109509;1249;75520;-59
2024/03/28 07:55:38;;;;;;;6.20;4.20;;;;;;;23.66;32.23;100498.35;109504;1250;66402;-58
2024/03/28 07:58:06;;;;;;;10.90;4.50;;;;;;;23.89;31.27;100495.58;109486;1251;74199;-58
2024/03/28 08:00:33;;;;;;;5.40;3.40;;;;;;;24.03;31.20;100496.65;109390;1250;62213;-56
2024/03/28 08:03:01;;;;;;;6.40;4.60;;;;;;;24.24;30.78;100499.84;109462;1250;62202;-56
2024/03/28 08:05:29;;;;;;;8.20;4.40;;;;;;;24.15;30.50;100493.23;109489;1249;77489;-56
2024/03/28 08:07:57;;;;;;;5.90;4.60;;;;;;;23.87;31.22;100488.87;109471;1251;68357;-56
2024/03/28 08:10:28;;;;;;;6.40;4.20;;;;;;;23.69;31.43;100491.66;109452;1250;73732;-59
2024/03/28 08:12:55;;;;;;;;;;;;;;;23.48;31.58;100485.81;109504;1249;62820;-57
2024/03/28 08:15:25;;;;;;;6.80;4.40;;;;;;;23.55;31.38;100482.84;109488;1250;60623;-56
2024/03/28 08:17:52;;;;;;;9.60;5.10;;;;;;;23.83;30.92;100477.59;109424;1250;76137;-56
2024/03/28 08:20:20;;;;;;;6.30;4.30;;;;;;;23.88;31.16;100470.17;109417;1250;67833;-56
2024/03/28 08:22:50;;;;;;;5.80;4.10;;;;;;;23.92;31.64;100473.59;109400;1254;75522;-56
2024/03/28 08:25:18;;;;;;;9.10;4.80;;;;;;;24.04;32.07;100474.81;109473;1256;62189;-56
2024/03/28 08:27:45;;;;;;;6.50;4.50;;;;;;;24.14;32.10;100471.88;109559;1250;62153;-56
2024/03/28 08:30:13;;;;;;;6.10;4.70;;;;;;;24.08;31.69;100468.95;109444;1251;76345;-56
2024/03/28 08:32:42;;;;;;;5.90;3.90;;;;;;;24.02;32.02;100464.54;109441;1249;68672;-60
2024/03/28 08:35:13;;;;;;;10.80;5.40;;;;;;;24.02;31.82;100465.02;109429;1251;74681;-56
2024/03/28 08:37:41;;;;;;;;;;;;;;;23.92;31.62;100468.42;109485;1251;62638;-56
2024/03/28 08:40:12;;;;;;;13.50;4.60;;;;;;;23.73;31.92;100469.59;109485;1249;62220;-56
2024/03/28 08:42:40;;;;;;;7.30;4.40;;;;;;;23.78;32.14;100473.84;109525;1249;78063;-57
2024/03/28 08:45:09;;;;;;;10.80;4.60;;;;;;;23.88;31.96;100469.11;109457;1251;68356;-56
2024/03/28 08:47:36;;;;;;;7.00;4.70;;;;;;;23.97;31.78;100474.17;109356;1250;74976;-56
2024/03/28 08:50:05;;;;;;;6.80;4.30;;;;;;;24.14;31.58;100468.73;109494;1251;62231;-57
2024/03/28 08:52:38;;;;;;;6.40;5.00;;;;;;;24.40;31.35;100469.19;109502;1250;60165;-56
2024/03/28 08:55:10;;;;;;;6.10;5.00;;;;;;;24.49;31.06;100466.31;109478;1251;76411;-56
2024/03/28 08:57:38;;;;;;;6.90;5.00;;;;;;;24.50;30.87;100464.48;109483;1249;68877;-57
2024/03/28 09:00:10;;;;;;;5.80;4.10;;;;;;;24.49;30.77;100464.71;109462;1250;73779;-57
2024/03/28 09:02:38;;;;;;;6.60;4.70;;;;;;;24.57;31.08;100461.48;109254;1251;61496;-56
2024/03/28 09:05:08;;;;;;;6.10;4.30;;;;;;;24.91;31.20;100466.07;109437;1249;62684;-56
2024/03/28 09:07:36;;;;;;;5.10;3.90;;;;;;;25.20;30.32;100458.96;109433;1251;76743;-57
2024/03/28 09:10:07;;;;;;;8.10;3.90;;;;;;;25.26;29.73;100456.95;109434;1251;68434;-57
2024/03/28 09:12:35;;;;;;;4.60;3.60;;;;;;;24.98;29.55;100456.29;109475;1250;74935;-55
2024/03/28 09:15:03;;;;;;;5.00;3.50;;;;;;;24.44;30.18;100453.45;109412;1251;61996;-55
2024/03/28 09:17:31;;;;;;;5.10;3.80;;;;;;;23.99;31.01;100456.23;109382;1253;62524;-55
2024/03/28 09:19:59;;;;;;;5.60;3.60;;;;;;;23.64;31.61;100451.98;109485;1250;76788;-55
2024/03/28 09:22:27;;;;;;;6.40;4.10;;;;;;;23.32;32.24;100451.77;109438;1250;69505;-55
2024/03/28 09:24:54;;;;;;;5.60;3.90;;;;;;;23.24;32.83;100443.83;109474;1251;73776;-55
2024/03/28 09:27:27;;;;;;;9.30;4.20;;;;;;;23.19;33.25;100436.95;109378;1251;62946;-56
2024/03/28 09:29:55;;;;;;;6.60;4.30;;;;;;;23.39;33.05;100429.34;109469;1249;62112;-56
2024/03/28 09:32:23;;;;;;;6.10;4.20;;;;;;;23.68;32.99;100424.69;109462;1251;77004;-55
2024/03/28 09:34:50;;;;;;;4.40;3.10;;;;;;;23.93;32.17;100426.24;109473;1249;69482;-55
2024/03/28 09:37:18;;;;;;;6.00;3.30;;;;;;;23.76;31.72;100419.49;109447;1250;74757;-55
2024/03/28 09:39:47;;;;;;;6.10;3.00;;;;;;;23.42;32.06;100420.88;109197;1250;61462;-55
2024/03/28 09:42:19;;;;;;;4.30;3.00;;;;;;;23.48;32.47;100412.95;109449;1249;62631;-55
2024/03/28 09:44:47;;;;;;;3.70;2.60;;;;;;;23.71;31.78;100416.83;109509;1251;76886;-55
2024/03/28 09:47:15;;;;;;;5.20;3.00;;;;;;;23.70;31.47;100413.21;109453;1249;68510;-56
2024/03/28 09:49:43;;;;;;;5.20;3.20;;;;;;;23.57;31.47;100413.81;109439;1253;74793;-57
2024/03/28 09:52:11;;;;;;;6.60;3.10;;;;;;;23.40;31.79;100404.17;109437;1251;61818;-56
2024/03/28 09:54:41;;;;;;;5.50;3.00;;;;;;;23.33;32.04;100405.86;109291;1249;61210;-55
2024/03/28 09:57:09;;;;;;;5.70;3.40;;;;;;;23.15;32.10;100402.42;109450;1249;78286;-56
2024/03/28 09:59:36;;;;;;;4.00;3.20;;;;;;;23.07;32.66;100392.67;109454;1250;69808;-60
2024/03/28 10:02:13;;;;;;;6.10;3.30;;;;;;;23.18;32.33;100383.71;109420;1249;74682;-56
2024/03/28 10:04:43;;;;;;;4.10;2.70;;;;;;;22.93;32.58;100380.98;109444;1250;61539;-56
2024/03/28 10:07:10;;;;;;;5.20;3.70;;;;;;;22.95;32.55;100373.08;109402;1254;62650;-56
2024/03/28 10:09:38;;;;;;;6.20;3.00;;;;;;;23.06;32.54;100368.27;109366;1250;77877;-59
2024/03/28 10:12:12;;;;;;;6.50;3.50;;;;;;;23.12;32.41;100370.08;109461;1250;68394;-57
2024/03/28 10:14:42;;;;;;;4.70;2.90;;;;;;;23.17;32.49;100365.25;109467;1250;75227;-55
2024/03/28 10:17:10;;;;;;;5.70;2.80;;;;;;;23.29;31.75;100360.75;109460;1251;62239;-55
2024/03/28 10:19:40;;;;;;;3.90;2.80;;;;;;;23.17;31.72;100354.25;109448;1249;61300;-58
2024/03/28 10:22:10;;;;;;;4.40;3.00;;;;;;;23.01;31.40;100343.30;109438;1250;78003;-55
2024/03/28 10:24:46;;;;;;;5.20;2.70;;;;;;;22.68;31.55;100344.21;109453;1250;69073;-55
2024/03/28 10:27:14;;;;;;;5.10;3.50;;;;;;;22.47;31.60;100343.61;109391;1249;74910;-56
2024/03/28 10:29:49;;;;;;;5.70;3.60;;;;;;;22.32;31.66;100338.17;109401;1250;60188;-59
2024/03/28 10:32:16;;;;;;;4.40;3.10;;;;;;;22.03;32.13;100329.88;109434;1251;62610;-55
2024/03/28 10:34:47;;;;;;;6.00;3.30;;;;;;;22.14;32.30;100326.92;109468;1251;78150;-55
2024/03/28 10:37:19;;;;;;;5.40;3.60;;;;;;;22.48;31.90;100319.65;109477;1251;67051;-55
2024/03/28 10:39:48;;;;;;;6.40;3.90;;;;;;;22.76;31.35;100321.86;109417;1249;74074;-55
2024/03/28 10:42:16;;;;;;;8.30;4.30;;;;;;;22.78;31.21;100323.36;109413;1250;62604;-55
2024/03/28 10:44:48;;;;;;;5.80;4.20;;;;;;;22.76;31.33;100319.84;109494;1251;62685;-56
2024/03/28 10:47:16;;;;;;;5.90;4.20;;;;;;;22.68;30.76;100321.15;109482;1250;77951;-55
2024/03/28 10:49:46;;;;;;;5.60;3.80;;;;;;;22.40;31.26;100315.48;109382;1251;67624;-56
2024/03/28 10:52:48;;;;;;;7.40;4.60;;;;;;;22.43;31.31;100308.20;109391;1250;73400;-56
2024/03/28 10:55:19;;;;;;;7.50;4.30;;;;;;;22.55;31.11;100307.23;109292;1250;61526;-56
2024/03/28 10:57:47;;;;;;;6.70;4.40;;;;;;;22.63;30.93;100299.51;109364;1249;62587;-55
2024/03/28 11:00:15;;;;;;;9.40;5.10;;;;;;;22.73;30.78;100296.29;109511;1250;78049;-55
2024/03/28 11:02:43;;;;;;;7.00;5.00;;;;;;;22.71;30.45;100289.80;109445;1249;69109;-56
2024/03/28 11:05:11;;;;;;;7.20;4.50;;;;;;;22.67;30.69;100285.55;109425;1253;75276;-56
2024/03/28 11:07:39;;;;;;;6.50;4.00;;;;;;;22.72;30.79;100282.10;109437;1249;62490;-55
2024/03/28 11:10:07;;;;;;;6.90;4.70;;;;;;;22.81;30.61;100279.57;109443;1250;59769;-56
2024/03/28 11:12:36;;;;;;;6.90;4.00;;;;;;;22.76;30.35;100279.98;109489;1250;76873;-55
2024/03/28 11:15:06;;;;;;;6.60;3.80;;;;;;;22.65;30.30;100274.86;109299;1250;213506;-56
2024/03/28 11:17:40;;;;;;;6.10;3.60;;;;;;;22.46;30.48;100272.20;109470;1250;73981;-55